createdAt,value
2018-02-20T00:01:59.135Z,-1.40
2018-02-20T00:06:50.088Z,-1.50
2018-02-20T00:11:41.009Z,-1.50
2018-02-20T00:16:31.922Z,-1.50
2018-02-20T00:21:22.858Z,-1.50
2018-02-20T00:26:13.808Z,-1.50
2018-02-20T00:31:04.715Z,-1.50
2018-02-20T00:35:56.371Z,-1.60
2018-02-20T00:40:47.279Z,-1.60
2018-02-20T00:45:38.936Z,-1.50
2018-02-20T00:50:29.871Z,-1.60
2018-02-20T00:55:20.770Z,-1.60
2018-02-20T01:00:11.687Z,-1.50
2018-02-20T01:05:02.594Z,-1.50
2018-02-20T01:09:53.524Z,-1.50
2018-02-20T01:14:44.430Z,-1.50
2018-02-20T01:19:35.322Z,-1.50
2018-02-20T01:24:26.207Z,-1.50
2018-02-20T01:29:17.111Z,-1.50
2018-02-20T01:34:08.012Z,-1.50
2018-02-20T01:38:58.906Z,-1.50
2018-02-20T01:43:50.551Z,-1.50
2018-02-20T01:48:41.447Z,-1.50
2018-02-20T01:53:32.354Z,-1.50
2018-02-20T01:58:23.251Z,-1.50
2018-02-20T02:03:14.161Z,-1.50
2018-02-20T02:08:05.070Z,-1.50
2018-02-20T02:12:55.970Z,-1.50
2018-02-20T02:17:46.892Z,-1.50
2018-02-20T02:22:37.811Z,-1.50
2018-02-20T02:27:28.752Z,-1.50
2018-02-20T02:32:20.517Z,-1.50
2018-02-20T02:37:11.423Z,-1.50
2018-02-20T02:42:02.325Z,-1.50
2018-02-20T02:46:53.236Z,-1.50
2018-02-20T02:51:44.159Z,-1.50
2018-02-20T02:56:35.094Z,-1.50
2018-02-20T03:01:25.996Z,-1.50
2018-02-20T03:06:16.889Z,-1.50
2018-02-20T03:11:08.533Z,-1.50
2018-02-20T03:15:59.434Z,-1.50
2018-02-20T03:20:50.372Z,-1.50
2018-02-20T03:25:41.287Z,-1.50
2018-02-20T03:30:32.179Z,-1.50
2018-02-20T03:35:23.088Z,-1.50
2018-02-20T03:40:13.987Z,-1.50
2018-02-20T03:45:04.883Z,-1.50
2018-02-20T03:49:55.808Z,-1.60
2018-02-20T03:54:46.711Z,-1.60
2018-02-20T03:59:37.647Z,-1.70
2018-02-20T04:04:28.537Z,-1.70
2018-02-20T04:09:19.440Z,-1.70
2018-02-20T04:14:10.350Z,-1.80
2018-02-20T04:19:01.995Z,-1.80
2018-02-20T04:23:53.652Z,-1.90
2018-02-20T04:28:44.570Z,-1.90
2018-02-20T04:33:35.476Z,-1.90
2018-02-20T04:38:26.357Z,-1.90
2018-02-20T04:43:17.271Z,-1.90
2018-02-20T04:48:08.172Z,-1.90
2018-02-20T04:52:59.091Z,-1.90
2018-02-20T04:57:50.012Z,-1.90
2018-02-20T05:02:40.926Z,-1.90
2018-02-20T05:07:31.828Z,-1.90
2018-02-20T05:12:22.725Z,-1.90
2018-02-20T05:17:13.667Z,-1.90
2018-02-20T05:22:04.567Z,-1.80
2018-02-20T05:26:55.460Z,-1.80
2018-02-20T05:31:47.094Z,-1.80
2018-02-20T05:36:37.997Z,-1.80
2018-02-20T05:41:28.908Z,-1.80
2018-02-20T05:46:19.829Z,-1.70
2018-02-20T05:51:10.734Z,-1.80
2018-02-20T05:56:01.621Z,-1.70
2018-02-20T06:00:52.505Z,-1.70
2018-02-20T06:05:44.226Z,-1.70
2018-02-20T06:10:35.145Z,-1.70
2018-02-20T06:15:26.028Z,-1.70
2018-02-20T06:20:16.928Z,-1.70
2018-02-20T06:25:07.842Z,-1.70
2018-02-20T06:29:58.747Z,-1.70
2018-02-20T06:34:49.655Z,-1.80
2018-02-20T06:39:40.572Z,-1.80
2018-02-20T06:44:31.483Z,-1.80
2018-02-20T06:49:23.129Z,-1.80
2018-02-20T06:54:14.762Z,-1.80
2018-02-20T06:59:05.659Z,-1.80
2018-02-20T07:03:56.566Z,-1.80
2018-02-20T07:08:47.474Z,-1.80
2018-02-20T07:13:38.367Z,-1.80
2018-02-20T07:18:29.258Z,-1.80
2018-02-20T07:23:20.906Z,-1.70
2018-02-20T07:28:11.832Z,-1.70
2018-02-20T07:33:02.721Z,-1.60
2018-02-20T07:37:54.384Z,-1.50
2018-02-20T07:42:45.290Z,-1.60
2018-02-20T07:47:36.254Z,-1.50
2018-02-20T07:52:27.183Z,-1.40
2018-02-20T07:57:18.095Z,-1.40
2018-02-20T08:02:09.043Z,-1.30
2018-02-20T08:07:00.750Z,-1.20
2018-02-20T08:11:51.659Z,-1.20
2018-02-20T08:16:42.549Z,-1.10
2018-02-20T08:21:33.447Z,-1.00
2018-02-20T08:26:25.171Z,-0.80
2018-02-20T08:31:16.185Z,-0.90
2018-02-20T08:36:07.072Z,-0.70
2018-02-20T08:40:57.979Z,-0.60
2018-02-20T08:45:48.865Z,-0.50
2018-02-20T08:50:39.767Z,-0.40
2018-02-20T08:55:31.407Z,-0.20
2018-02-20T09:00:23.060Z,-0.10
2018-02-20T09:05:13.945Z,-0.10
2018-02-20T09:10:04.844Z,0.10
2018-02-20T09:14:55.771Z,0.20
2018-02-20T09:19:46.666Z,0.30
2018-02-20T09:24:37.573Z,0.40
2018-02-20T09:29:28.470Z,0.50
2018-02-20T09:34:19.365Z,0.60
2018-02-20T09:39:10.989Z,0.70
2018-02-20T09:44:01.877Z,0.70
2018-02-20T09:48:52.859Z,0.80
2018-02-20T09:53:43.762Z,0.90
2018-02-20T09:58:34.780Z,0.90
2018-02-20T10:03:26.436Z,1.00
2018-02-20T10:08:17.321Z,1.00
2018-02-20T10:13:08.204Z,1.00
2018-02-20T10:17:59.090Z,1.00
2018-02-20T10:22:49.989Z,1.10
2018-02-20T10:27:41.627Z,1.10
2018-02-20T10:32:32.504Z,1.10
2018-02-20T10:37:23.396Z,1.10
2018-02-20T10:42:14.315Z,1.20
2018-02-20T10:47:05.229Z,1.20
2018-02-20T10:51:56.219Z,1.30
2018-02-20T10:56:47.869Z,1.50
2018-02-20T11:01:38.831Z,1.50
2018-02-20T11:06:29.730Z,1.60
2018-02-20T11:11:20.644Z,1.80
2018-02-20T11:16:11.575Z,2.10
2018-02-20T11:21:03.233Z,2.90
2018-02-20T11:25:54.158Z,2.90
2018-02-20T11:30:45.089Z,3.40
2018-02-20T11:35:36.760Z,4.40
2018-02-20T11:40:27.694Z,4.40
2018-02-20T11:45:18.629Z,4.90
2018-02-20T11:50:09.550Z,5.50
2018-02-20T11:55:00.499Z,6.10
2018-02-20T11:59:52.146Z,7.10
2018-02-20T12:04:43.061Z,7.10
2018-02-20T12:09:34.721Z,8.00
2018-02-20T12:14:25.637Z,8.00
2018-02-20T12:19:16.544Z,8.50
2018-02-20T12:24:08.203Z,9.30
2018-02-20T12:28:59.109Z,9.30
2018-02-20T12:33:50.039Z,9.80
2018-02-20T12:38:40.967Z,10.10
2018-02-20T12:43:31.890Z,10.50
2018-02-20T12:48:22.820Z,10.90
2018-02-20T12:53:13.742Z,11.10
2018-02-20T12:58:04.677Z,11.40
2018-02-20T13:02:55.604Z,11.60
2018-02-20T13:07:46.543Z,11.70
2018-02-20T13:12:38.228Z,11.60
2018-02-20T13:17:29.154Z,11.60
2018-02-20T13:22:20.088Z,11.50
2018-02-20T13:27:11.038Z,11.30
2018-02-20T13:32:02.703Z,11.00
2018-02-20T13:36:53.628Z,11.00
2018-02-20T13:41:44.545Z,10.90
2018-02-20T13:46:35.457Z,10.80
2018-02-20T13:51:26.395Z,10.60
2018-02-20T13:56:17.327Z,10.40
2018-02-20T14:01:08.263Z,10.10
2018-02-20T14:05:59.921Z,9.40
2018-02-20T14:10:50.858Z,9.40
2018-02-20T14:15:42.522Z,8.80
2018-02-20T14:20:33.441Z,8.70
2018-02-20T14:25:24.360Z,8.40
2018-02-20T14:30:16.023Z,7.90
2018-02-20T14:35:06.970Z,7.90
2018-02-20T14:39:57.931Z,7.60
2018-02-20T14:44:48.859Z,7.40
2018-02-20T14:49:39.831Z,7.20
2018-02-20T14:54:31.481Z,7.00
2018-02-20T14:59:23.128Z,6.90
2018-02-20T15:04:14.120Z,6.80
2018-02-20T15:09:05.044Z,6.80
2018-02-20T15:13:56.851Z,6.50
2018-02-20T15:18:47.784Z,6.40
2018-02-20T15:23:38.721Z,6.30
2018-02-20T15:28:29.632Z,6.10
2018-02-20T15:33:20.562Z,5.90
2018-02-20T15:38:11.511Z,5.70
2018-02-20T15:43:02.439Z,5.50
2018-02-20T15:47:53.353Z,5.40
2018-02-20T15:52:44.338Z,5.20
2018-02-20T15:57:36.017Z,5.00
2018-02-20T16:02:26.955Z,4.90
2018-02-20T16:07:17.892Z,4.70
2018-02-20T16:12:08.806Z,4.50
2018-02-20T16:17:00.585Z,4.30
2018-02-20T16:21:51.533Z,4.10
2018-02-20T16:26:42.451Z,3.90
2018-02-20T16:31:33.416Z,3.70
2018-02-20T16:36:25.077Z,3.30
2018-02-20T16:41:15.993Z,3.30
2018-02-20T16:46:06.916Z,3.10
2018-02-20T16:50:57.843Z,3.00
2018-02-20T16:55:48.756Z,2.80
2018-02-20T17:00:39.674Z,2.60
2018-02-20T17:05:30.584Z,2.40
2018-02-20T17:10:22.307Z,2.10
2018-02-20T17:15:14.012Z,2.00
2018-02-20T17:20:04.952Z,1.90
2018-02-20T17:24:55.861Z,1.80
2018-02-20T17:29:46.768Z,1.70
2018-02-20T17:34:38.430Z,1.40
2018-02-20T17:39:29.353Z,1.40
2018-02-20T17:44:21.019Z,1.10
2018-02-20T17:49:26.974Z,1.10
2018-02-20T17:54:17.910Z,0.90
2018-02-20T17:59:08.842Z,0.70
2018-02-20T18:03:59.780Z,0.60
2018-02-20T18:08:50.701Z,0.50
2018-02-20T18:13:41.637Z,0.30
2018-02-20T18:18:32.568Z,0.20
2018-02-20T18:23:23.500Z,0.00
2018-02-20T18:28:15.166Z,-0.20
2018-02-20T18:33:06.083Z,-0.20
2018-02-20T18:37:57.010Z,-0.30
2018-02-20T18:42:47.921Z,-0.50
2018-02-20T18:47:38.840Z,-0.60
2018-02-20T18:52:29.797Z,-0.70
2018-02-20T18:57:20.709Z,-0.80
2018-02-20T19:02:11.667Z,-0.90
2018-02-20T19:07:03.409Z,-1.10
2018-02-20T19:11:54.345Z,-1.10
2018-02-20T19:16:45.310Z,-1.20
2018-02-20T19:21:36.324Z,-1.30
2018-02-20T19:26:27.283Z,-1.30
2018-02-20T19:31:19.044Z,-1.50
2018-02-20T19:36:09.991Z,-1.50
2018-02-20T19:41:00.951Z,-1.60
2018-02-20T19:45:52.619Z,-1.70
2018-02-20T19:50:43.547Z,-1.70
2018-02-20T19:55:34.510Z,-1.70
2018-02-20T20:00:25.446Z,-1.80
2018-02-20T20:05:16.447Z,-1.90
2018-02-20T20:10:07.479Z,-1.90
2018-02-20T20:14:58.386Z,-2.00
2018-02-20T20:19:49.403Z,-2.10
2018-02-20T20:24:40.304Z,-2.20
2018-02-20T20:29:31.224Z,-2.20
2018-02-20T20:34:22.157Z,-2.30
2018-02-20T20:39:13.090Z,-2.40
2018-02-20T20:44:04.107Z,-2.40
2018-02-20T20:48:55.051Z,-2.50
2018-02-20T20:53:46.748Z,-2.60
2018-02-20T20:58:37.657Z,-2.60
2018-02-20T21:03:28.602Z,-2.70
2018-02-20T21:08:19.526Z,-2.80
2018-02-20T21:13:11.199Z,-2.90
2018-02-20T21:18:02.311Z,-2.90
2018-02-20T21:22:53.391Z,-2.90
2018-02-20T21:27:44.444Z,-3.00
2018-02-20T21:32:36.096Z,-3.10
2018-02-20T21:37:27.079Z,-3.10
2018-02-20T21:42:18.089Z,-3.10
2018-02-20T21:47:09.027Z,-3.10
2018-02-20T21:52:00.680Z,-3.10
2018-02-20T21:56:52.354Z,-3.20
2018-02-20T22:01:43.271Z,-3.20
2018-02-20T22:06:34.213Z,-3.20
2018-02-20T22:11:25.147Z,-3.30
2018-02-20T22:16:16.067Z,-3.30
2018-02-20T22:21:07.095Z,-3.30
2018-02-20T22:25:58.858Z,-3.40
2018-02-20T22:30:50.566Z,-3.40
2018-02-20T22:35:41.569Z,-3.40
2018-02-20T22:40:32.506Z,-3.40
2018-02-20T22:45:24.284Z,-3.50
2018-02-20T22:50:15.287Z,-3.50
2018-02-20T22:55:06.287Z,-3.50
2018-02-20T22:59:58.032Z,-3.60
2018-02-20T23:04:49.703Z,-3.60
2018-02-20T23:09:40.703Z,-3.60
2018-02-20T23:14:31.696Z,-3.60
2018-02-20T23:19:22.605Z,-3.70
2018-02-20T23:24:13.529Z,-3.70
2018-02-20T23:29:04.557Z,-3.70
2018-02-20T23:33:55.479Z,-3.70
2018-02-20T23:38:47.215Z,-3.70
2018-02-20T23:43:38.864Z,-3.70
2018-02-20T23:48:30.635Z,-3.70
2018-02-20T23:53:21.716Z,-3.80
2018-02-20T23:58:13.444Z,-3.70
